Time;durP1;ratioP1;P1;durP2;ratioP2;P2;SDS_P1;SDS_P2;PMS_P1;PMS_P2;Temp;Humidity;BMP_temperature;BMP_pressure;BME280_temperature;BME280_humidity;BME280_pressure;Samples;Min_cycle;Max_cycle;Signal;HPM_P1;HPM_P2
2021/12/06 00:01:33;;;;;;;88.97;82.13;;;;;;;;;;5011304;28;20072;-69
2021/12/06 00:04:08;;;;;;;88.18;81.53;;;;;;;;;;4986207;28;20023;-69
2021/12/06 00:06:37;;;;;;;92.00;84.85;;;;;;;;;;5006479;28;20049;-70
2021/12/06 00:09:05;;;;;;;87.63;80.97;;;;;;;;;;4996468;28;20032;-69
2021/12/06 00:11:31;;;;;;;88.38;81.68;;;;;;;;;;4977100;28;20033;-70
2021/12/06 00:13:57;;;;;;;91.47;84.95;;;;;;;;;;5002524;28;20036;-69
2021/12/06 00:16:24;;;;;;;93.15;86.10;;;;;;;;;;4995180;28;20532;-70
2021/12/06 00:18:51;;;;;;;88.63;81.93;;;;;;;;;;4990052;28;20080;-69
2021/12/06 00:21:18;;;;;;;90.13;83.07;;;;;;;;;;4994919;28;20037;-69
2021/12/06 00:23:44;;;;;;;92.15;85.93;;;;;;;;;;4983102;28;20403;-69
2021/12/06 00:26:10;;;;;;;94.38;87.40;;;;;;;;;;5013424;28;20124;-70
2021/12/06 00:28:37;;;;;;;93.47;86.35;;;;;;;;;;4995504;28;20122;-70
2021/12/06 00:31:04;;;;;;;92.65;86.05;;;;;;;;;;4991217;28;20403;-70
2021/12/06 00:33:30;;;;;;;93.63;86.72;;;;;;;;;;4998904;28;20045;-69
2021/12/06 00:36:02;;;;;;;93.65;87.18;;;;;;;;;;4991380;28;20030;-70
2021/12/06 00:38:29;;;;;;;91.35;84.95;;;;;;;;;;4989546;28;20072;-69
2021/12/06 00:40:55;;;;;;;93.63;86.65;;;;;;;;;;4995049;28;20092;-69
2021/12/06 00:43:21;;;;;;;92.43;85.40;;;;;;;;;;4995259;28;20045;-69
2021/12/06 00:45:47;;;;;;;120.93;109.22;;;;;;;;;;4996941;28;20029;-69
2021/12/06 00:48:13;;;;;;;95.15;88.15;;;;;;;;;;4978756;28;20507;-70
2021/12/06 00:50:40;;;;;;;103.07;94.93;;;;;;;;;;5006583;28;20057;-69
2021/12/06 00:53:06;;;;;;;;;;;;;;;;;;4982110;28;20036;-70
2021/12/06 00:55:32;;;;;;;;;;;;;;;;;;5001021;28;20341;-71
2021/12/06 00:57:58;;;;;;;;;;;;;;;;;;5005080;28;19944;-70
2021/12/06 01:00:24;;;;;;;;;;;;;;;;;;4998321;28;19926;-72
2021/12/06 01:02:50;;;;;;;;;;;;;;;;;;4991332;28;19929;-71
2021/12/06 01:05:16;;;;;;;;;;;;;;;;;;5004984;28;20005;-70
2021/12/06 01:07:42;;;;;;;;;;;;;;;;;;4986943;28;20442;-72
2021/12/06 01:10:08;;;;;;;;;;;;;;;;;;5003525;28;19937;-71
2021/12/06 01:12:34;;;;;;;;;;;;;;;;;;4994587;28;19956;-70
2021/12/06 01:15:00;;;;;;;;;;;;;;;;;;5002764;28;19914;-70
2021/12/06 01:17:26;;;;;;;;;;;;;;;;;;5012381;28;20004;-71
2021/12/06 01:19:52;;;;;;;;;;;;;;;;;;4995639;28;19929;-70
2021/12/06 01:22:27;;;;;;;;;;;;;;;;;;4981038;28;19941;-71
2021/12/06 01:24:58;;;;;;;;;;;;;;;;;;4996876;28;19921;-71
2021/12/06 01:41:15;;;;;;;;;;;;;;;;;;4984597;28;19946;-71
2021/12/06 01:43:41;;;;;;;;;;;;;;;;;;5000198;28;19960;-71
2021/12/06 01:46:07;;;;;;;;;;;;;;;;;;5017236;28;19949;-71
2021/12/06 01:48:33;;;;;;;;;;;;;;;;;;4993837;28;19953;-71
2021/12/06 01:50:59;;;;;;;;;;;;;;;;;;4994052;28;19996;-71
2021/12/06 01:53:25;;;;;;;;;;;;;;;;;;5000304;28;19937;-71
2021/12/06 01:55:50;;;;;;;;;;;;;;;;;;4999104;28;19941;-71
2021/12/06 01:58:16;;;;;;;;;;;;;;;;;;4993683;28;19956;-70
2021/12/06 02:00:42;;;;;;;;;;;;;;;;;;5004821;28;20460;-71
2021/12/06 02:03:08;;;;;;;;;;;;;;;;;;5013767;28;19918;-71
2021/12/06 02:05:34;;;;;;;;;;;;;;;;;;4981520;28;20004;-72
2021/12/06 02:08:01;;;;;;;;;;;;;;;;;;4990519;28;19984;-71
2021/12/06 02:10:27;;;;;;;;;;;;;;;;;;4984399;28;19917;-71
2021/12/06 02:12:54;;;;;;;;;;;;;;;;;;4997531;28;20008;-71
2021/12/06 02:15:36;;;;;;;;;;;;;;;;;;4997002;28;19945;-70
2021/12/06 02:18:12;;;;;;;;;;;;;;;;;;4991810;28;19967;-71
2021/12/06 02:20:46;;;;;;;;;;;;;;;;;;4995933;28;20504;-71
2021/12/06 02:23:12;;;;;;;;;;;;;;;;;;4996492;28;20361;-71
2021/12/06 02:25:38;;;;;;;;;;;;;;;;;;5001788;28;19996;-71
2021/12/06 02:28:04;;;;;;;;;;;;;;;;;;4992970;28;19949;-71
2021/12/06 02:30:30;;;;;;;;;;;;;;;;;;5001566;28;20000;-72
2021/12/06 02:32:56;;;;;;;;;;;;;;;;;;5001367;28;19917;-71
2021/12/06 02:35:23;;;;;;;;;;;;;;;;;;4998907;28;19910;-71
2021/12/06 02:37:49;;;;;;;;;;;;;;;;;;4985401;28;19910;-71
2021/12/06 02:40:15;;;;;;;;;;;;;;;;;;5008274;28;19952;-71
2021/12/06 02:42:43;;;;;;;;;;;;;;;;;;4993796;28;19945;-71
2021/12/06 02:45:09;;;;;;;;;;;;;;;;;;4997052;28;20342;-71
2021/12/06 02:47:35;;;;;;;;;;;;;;;;;;5015895;28;19910;-71
2021/12/06 02:50:07;;;;;;;;;;;;;;;;;;5001298;28;19910;-70
2021/12/06 02:52:33;;;;;;;;;;;;;;;;;;5003433;28;19917;-71
2021/12/06 02:55:00;;;;;;;;;;;;;;;;;;5013173;28;19909;-70
2021/12/06 02:57:35;;;;;;;;;;;;;;;;;;4993171;28;20255;-71
2021/12/06 03:00:01;;;;;;;;;;;;;;;;;;4994056;28;19940;-70
2021/12/06 03:02:30;;;;;;;;;;;;;;;;;;4992510;28;20382;-70
2021/12/06 03:04:56;;;;;;;;;;;;;;;;;;5011287;28;19920;-70
2021/12/06 03:07:24;;;;;;;;;;;;;;;;;;5009713;28;19914;-70
2021/12/06 03:09:53;;;;;;;;;;;;;;;;;;4999726;28;19909;-70
2021/12/06 03:12:19;;;;;;;;;;;;;;;;;;4992844;28;19910;-70
2021/12/06 03:14:45;;;;;;;;;;;;;;;;;;5007994;28;20052;-70
2021/12/06 03:17:11;;;;;;;;;;;;;;;;;;4988282;28;19917;-71
2021/12/06 03:19:37;;;;;;;;;;;;;;;;;;4995463;28;20371;-70
2021/12/06 03:22:02;;;;;;;;;;;;;;;;;;4986334;28;19956;-70
2021/12/06 03:24:28;;;;;;;;;;;;;;;;;;4988464;28;19909;-70
2021/12/06 03:26:54;;;;;;;;;;;;;;;;;;4992432;28;19937;-70
2021/12/06 03:29:20;;;;;;;;;;;;;;;;;;4997552;28;19949;-70
2021/12/06 03:31:47;;;;;;;;;;;;;;;;;;4996018;28;19976;-70
2021/12/06 03:34:13;;;;;;;;;;;;;;;;;;4983558;28;19909;-70
2021/12/06 03:36:39;;;;;;;;;;;;;;;;;;4992010;28;20001;-69
2021/12/06 03:39:05;;;;;;;;;;;;;;;;;;4999236;28;20000;-70
2021/12/06 03:41:30;;;;;;;;;;;;;;;;;;5004362;28;19997;-70
2021/12/06 03:43:56;;;;;;;;;;;;;;;;;;5007219;28;19964;-69
2021/12/06 03:46:22;;;;;;;;;;;;;;;;;;4991520;28;20375;-69
2021/12/06 03:48:48;;;;;;;;;;;;;;;;;;4997877;28;19961;-69
2021/12/06 03:51:14;;;;;;;;;;;;;;;;;;4986133;28;19930;-70
2021/12/06 03:53:40;;;;;;;;;;;;;;;;;;4991992;28;19952;-69
2021/12/06 03:56:06;;;;;;;;;;;;;;;;;;4995140;28;20269;-69
2021/12/06 03:58:32;;;;;;;;;;;;;;;;;;5011975;28;20362;-70
2021/12/06 04:00:58;;;;;;;;;;;;;;;;;;5009410;28;19961;-69
2021/12/06 04:03:24;;;;;;;;;;;;;;;;;;4993200;28;19961;-69
2021/12/06 04:05:50;;;;;;;;;;;;;;;;;;4999516;28;19941;-69
2021/12/06 04:08:16;;;;;;;;;;;;;;;;;;5002241;28;20434;-69
2021/12/06 04:10:42;;;;;;;;;;;;;;;;;;5007087;28;20367;-69
2021/12/06 04:13:08;;;;;;;;;;;;;;;;;;5008345;28;19921;-69
2021/12/06 04:15:36;;;;;;;;;;;;;;;;;;4993330;28;20340;-69
2021/12/06 04:18:01;;;;;;;;;;;;;;;;;;4991894;28;19914;-69
2021/12/06 04:20:27;;;;;;;;;;;;;;;;;;4999895;28;19961;-69
2021/12/06 04:22:53;;;;;;;;;;;;;;;;;;4994282;28;19935;-68
2021/12/06 04:25:19;;;;;;;;;;;;;;;;;;4994953;28;19941;-68
2021/12/06 04:27:52;;;;;;;;;;;;;;;;;;4997097;28;19957;-69
2021/12/06 04:30:18;;;;;;;;;;;;;;;;;;4992759;28;19914;-69
2021/12/06 04:32:44;;;;;;;;;;;;;;;;;;4999223;28;20492;-68
2021/12/06 04:35:10;;;;;;;;;;;;;;;;;;4998941;28;20000;-69
2021/12/06 04:37:36;;;;;;;;;;;;;;;;;;4985877;28;19949;-69
2021/12/06 04:40:02;;;;;;;;;;;;;;;;;;5016818;28;19964;-68
2021/12/06 04:42:27;;;;;;;;;;;;;;;;;;5000951;28;20008;-69
2021/12/06 04:44:53;;;;;;;;;;;;;;;;;;4991292;28;19993;-68
2021/12/06 04:47:19;;;;;;;;;;;;;;;;;;5015622;28;19937;-68
2021/12/06 04:49:45;;;;;;;;;;;;;;;;;;5015607;28;19948;-69
2021/12/06 04:52:12;;;;;;;;;;;;;;;;;;5005818;28;19940;-68
2021/12/06 04:54:38;;;;;;;;;;;;;;;;;;4990278;28;19914;-68
2021/12/06 04:57:04;;;;;;;;;;;;;;;;;;4987531;28;20037;-68
2021/12/06 04:59:30;;;;;;;;;;;;;;;;;;5014500;28;19957;-68
2021/12/06 05:01:56;;;;;;;;;;;;;;;;;;5021534;28;19926;-68
2021/12/06 05:04:22;;;;;;;;;;;;;;;;;;5017182;28;19948;-68
2021/12/06 05:06:48;;;;;;;;;;;;;;;;;;5002493;28;19953;-68
2021/12/06 05:09:14;;;;;;;;;;;;;;;;;;4998871;28;19972;-68
2021/12/06 05:11:40;;;;;;;;;;;;;;;;;;4993342;28;19988;-68
2021/12/06 05:14:06;;;;;;;;;;;;;;;;;;4996347;28;20363;-68
2021/12/06 05:16:33;;;;;;;;;;;;;;;;;;5003046;28;19947;-68
2021/12/06 05:18:59;;;;;;;;;;;;;;;;;;5014712;28;19917;-68
2021/12/06 05:21:25;;;;;;;;;;;;;;;;;;4990373;28;19932;-68
2021/12/06 05:23:51;;;;;;;;;;;;;;;;;;4988437;28;19956;-68
2021/12/06 05:26:17;;;;;;;;;;;;;;;;;;4998782;28;20421;-68
2021/12/06 05:28:45;;;;;;;;;;;;;;;;;;4996666;28;20366;-68
2021/12/06 05:31:15;;;;;;;;;;;;;;;;;;5009982;28;19958;-68
2021/12/06 05:33:42;;;;;;;;;;;;;;;;;;4987242;28;19941;-68
2021/12/06 05:36:08;;;;;;;;;;;;;;;;;;4993562;28;20453;-68
2021/12/06 05:38:34;;;;;;;;;;;;;;;;;;5003443;28;19949;-68
2021/12/06 05:41:00;;;;;;;;;;;;;;;;;;5014472;28;19977;-68
2021/12/06 05:43:26;;;;;;;;;;;;;;;;;;4996304;28;19949;-68
2021/12/06 05:45:51;;;;;;;;;;;;;;;;;;5004996;28;19953;-68
2021/12/06 05:48:17;;;;;;;;;;;;;;;;;;4996777;28;19954;-68
2021/12/06 05:50:43;;;;;;;;;;;;;;;;;;5009119;28;19969;-68
2021/12/06 05:53:09;;;;;;;;;;;;;;;;;;5007051;28;19961;-68
2021/12/06 05:55:35;;;;;;;;;;;;;;;;;;5000023;28;19925;-68
2021/12/06 05:58:01;;;;;;;;;;;;;;;;;;5007276;28;19967;-68
2021/12/06 06:00:29;;;;;;;;;;;;;;;;;;5011738;28;19960;-68
2021/12/06 06:02:55;;;;;;;;;;;;;;;;;;4999848;28;19922;-68
2021/12/06 06:05:21;;;;;;;;;;;;;;;;;;5007331;28;19929;-68
2021/12/06 06:07:47;;;;;;;;;;;;;;;;;;4991212;28;20596;-68
2021/12/06 06:10:13;;;;;;;;;;;;;;;;;;5008577;28;19921;-68
2021/12/06 06:12:39;;;;;;;;;;;;;;;;;;5004550;28;19920;-68
2021/12/06 06:15:05;;;;;;;;;;;;;;;;;;4995236;28;20379;-68
2021/12/06 06:17:39;;;;;;;381.38;276.50;;;;;;;;;;4990355;28;20370;-68
2021/12/06 06:20:07;;;;;;;69.80;56.60;;;;;;;;;;4989487;28;20440;-67
2021/12/06 06:22:33;;;;;;;63.42;51.35;;;;;;;;;;4988288;28;20040;-67
2021/12/06 06:24:59;;;;;;;65.25;53.15;;;;;;;;;;4991238;28;20030;-67
2021/12/06 06:27:25;;;;;;;66.28;54.58;;;;;;;;;;4991254;28;20026;-67
2021/12/06 06:29:51;;;;;;;73.55;56.08;;;;;;;;;;4988932;28;20489;-67
2021/12/06 06:32:17;;;;;;;71.18;58.30;;;;;;;;;;4991379;28;20098;-68
2021/12/06 06:34:43;;;;;;;67.60;54.97;;;;;;;;;;4990795;28;20054;-67
2021/12/06 06:37:10;;;;;;;72.68;56.97;;;;;;;;;;4990653;28;20064;-67
2021/12/06 06:39:36;;;;;;;63.05;55.90;;;;;;;;;;4989944;28;20201;-67
2021/12/06 06:42:02;;;;;;;63.95;55.05;;;;;;;;;;4989687;28;20120;-67
2021/12/06 06:44:28;;;;;;;64.35;56.47;;;;;;;;;;4992349;28;20034;-67
2021/12/06 06:46:54;;;;;;;66.00;54.00;;;;;;;;;;4990319;28;20493;-67
2021/12/06 06:49:20;;;;;;;68.15;53.50;;;;;;;;;;4988333;28;20038;-67
2021/12/06 06:51:46;;;;;;;61.40;53.13;;;;;;;;;;4986943;28;20060;-67
2021/12/06 06:54:13;;;;;;;66.88;53.10;;;;;;;;;;4991541;28;20046;-67
2021/12/06 06:56:39;;;;;;;67.78;55.30;;;;;;;;;;4991029;28;20045;-67
2021/12/06 06:59:06;;;;;;;68.82;54.70;;;;;;;;;;4988741;28;20053;-68
2021/12/06 07:01:32;;;;;;;68.20;60.38;;;;;;;;;;4992013;28;20139;-68
2021/12/06 07:03:58;;;;;;;68.80;56.67;;;;;;;;;;4990975;28;20039;-67
2021/12/06 07:06:26;;;;;;;67.47;58.42;;;;;;;;;;4988141;28;20140;-67
2021/12/06 07:08:54;;;;;;;69.22;57.00;;;;;;;;;;4990143;28;20130;-67
2021/12/06 07:11:20;;;;;;;70.03;58.50;;;;;;;;;;4985797;28;20045;-68
2021/12/06 07:13:47;;;;;;;65.82;56.97;;;;;;;;;;4990911;28;20117;-67
2021/12/06 07:16:14;;;;;;;68.07;58.45;;;;;;;;;;4991113;28;20038;-67
2021/12/06 07:18:41;;;;;;;69.25;59.72;;;;;;;;;;5003200;28;20041;-67
2021/12/06 07:21:07;;;;;;;68.82;59.17;;;;;;;;;;4991587;28;20429;-67
2021/12/06 07:23:38;;;;;;;65.72;56.83;;;;;;;;;;4990473;28;20068;-67
2021/12/06 07:26:05;;;;;;;60.63;54.80;;;;;;;;;;5006196;28;20040;-67
2021/12/06 07:28:31;;;;;;;69.05;59.78;;;;;;;;;;4985538;28;20036;-67
2021/12/06 07:30:58;;;;;;;67.70;58.08;;;;;;;;;;4988304;28;20406;-67
2021/12/06 07:33:25;;;;;;;71.43;57.53;;;;;;;;;;4983117;28;20045;-67
2021/12/06 07:35:51;;;;;;;72.53;61.10;;;;;;;;;;4991622;28;20026;-68
2021/12/06 07:38:17;;;;;;;75.13;60.70;;;;;;;;;;4989213;28;20055;-67
2021/12/06 07:40:44;;;;;;;78.15;60.20;;;;;;;;;;4988914;28;20490;-68
2021/12/06 07:43:10;;;;;;;87.38;66.10;;;;;;;;;;5008267;22;20053;-92
2021/12/06 07:45:36;;;;;;;84.28;63.60;;;;;;;;;;5018139;28;20076;-93
2021/12/06 07:48:03;;;;;;;79.60;62.50;;;;;;;;;;5001114;28;20059;-92
2021/12/06 07:50:29;;;;;;;90.88;61.03;;;;;;;;;;5005495;28;20026;-92
2021/12/06 07:52:55;;;;;;;84.72;62.85;;;;;;;;;;4998539;28;20029;-93
2021/12/06 07:55:25;;;;;;;88.80;64.22;;;;;;;;;;5021795;28;20041;-94
2021/12/06 07:57:56;;;;;;;85.18;63.92;;;;;;;;;;5015830;28;20017;-92
2021/12/06 08:00:23;;;;;;;80.60;60.80;;;;;;;;;;5010334;28;20616;-93
2021/12/06 08:02:49;;;;;;;83.43;63.60;;;;;;;;;;5000389;28;20539;-92
2021/12/06 08:05:32;;;;;;;84.88;62.30;;;;;;;;;;5005455;28;20048;-92
2021/12/06 08:08:00;;;;;;;99.97;63.83;;;;;;;;;;5007332;28;20022;-92
2021/12/06 08:10:26;;;;;;;98.50;63.17;;;;;;;;;;5012490;28;20036;-92
2021/12/06 08:12:52;;;;;;;99.07;62.28;;;;;;;;;;5011856;28;20030;-93
2021/12/06 08:15:18;;;;;;;96.07;62.47;;;;;;;;;;5018424;28;20037;-92
2021/12/06 08:17:44;;;;;;;96.82;62.63;;;;;;;;;;4995652;28;20030;-93
2021/12/06 08:20:11;;;;;;;100.72;65.13;;;;;;;;;;5010710;28;20026;-92
2021/12/06 08:22:37;;;;;;;94.07;63.38;;;;;;;;;;5016234;28;20095;-93
2021/12/06 08:25:04;;;;;;;108.30;65.05;;;;;;;;;;5015445;28;20029;-91
2021/12/06 08:27:30;;;;;;;106.45;68.60;;;;;;;;;;5013796;28;20036;-91
2021/12/06 08:29:56;;;;;;;101.28;66.47;;;;;;;;;;5021522;28;20069;-91
2021/12/06 08:32:22;;;;;;;97.20;67.07;;;;;;;;;;5016167;28;20064;-91
2021/12/06 08:34:48;;;;;;;108.40;64.80;;;;;;;;;;5006365;28;20034;-91
2021/12/06 08:37:14;;;;;;;106.22;62.40;;;;;;;;;;5005002;28;20507;-90
2021/12/06 08:39:40;;;;;;;102.05;55.47;;;;;;;;;;5012508;28;20079;-90
2021/12/06 08:42:07;;;;;;;93.50;59.92;;;;;;;;;;5009211;28;20041;-89
2021/12/06 08:44:34;;;;;;;102.78;59.28;;;;;;;;;;5014637;28;20054;-91
2021/12/06 08:47:02;;;;;;;92.35;56.35;;;;;;;;;;5015610;28;20265;-90
2021/12/06 08:49:28;;;;;;;94.55;58.67;;;;;;;;;;5016563;28;20036;-91
2021/12/06 08:51:56;;;;;;;92.03;62.30;;;;;;;;;;5011005;28;20487;-91
2021/12/06 08:54:26;;;;;;;79.65;55.85;;;;;;;;;;5027996;28;20081;-91
2021/12/06 08:56:53;;;;;;;471.40;348.25;;;;;;;;;;5007243;28;20022;-92
2021/12/06 08:59:19;;;;;;;93.95;60.40;;;;;;;;;;5010356;28;20043;-92
2021/12/06 09:01:45;;;;;;;100.03;65.50;;;;;;;;;;5013944;28;20046;-92
2021/12/06 09:04:12;;;;;;;93.60;62.38;;;;;;;;;;5010301;28;20030;-93
2021/12/06 09:06:40;;;;;;;81.50;59.28;;;;;;;;;;5013287;28;20108;-92
2021/12/06 09:09:08;;;;;;;93.93;61.33;;;;;;;;;;4998885;28;20022;-93
2021/12/06 09:11:35;;;;;;;95.20;61.22;;;;;;;;;;5011740;28;20041;-93
2021/12/06 09:14:01;;;;;;;90.55;59.00;;;;;;;;;;5017839;28;20030;-93
2021/12/06 09:16:28;;;;;;;88.18;59.83;;;;;;;;;;5016505;28;20112;-92
2021/12/06 09:18:54;;;;;;;91.20;61.38;;;;;;;;;;5006479;28;20031;-92
2021/12/06 09:21:21;;;;;;;89.28;59.03;;;;;;;;;;5015147;28;20509;-93
2021/12/06 09:23:48;;;;;;;82.82;57.88;;;;;;;;;;5017207;28;20029;-92
2021/12/06 09:26:15;;;;;;;90.85;62.00;;;;;;;;;;5013535;28;20049;-92
2021/12/06 09:28:41;;;;;;;87.40;62.28;;;;;;;;;;5010822;28;20037;-92
2021/12/06 09:31:08;;;;;;;85.90;64.85;;;;;;;;;;5013770;28;20030;-93
2021/12/06 09:33:36;;;;;;;101.75;67.05;;;;;;;;;;5002383;28;20032;-93
2021/12/06 09:36:03;;;;;;;94.03;64.22;;;;;;;;;;5006511;28;20109;-92
2021/12/06 09:38:39;;;;;;;85.80;62.88;;;;;;;;;;5004708;28;20053;-93
2021/12/06 09:41:09;;;;;;;84.38;60.58;;;;;;;;;;5013103;28;20033;-92
2021/12/06 09:43:39;;;;;;;77.45;57.90;;;;;;;;;;5011260;22;20421;-70
2021/12/06 09:46:05;;;;;;;67.75;53.72;;;;;;;;;;5012770;28;20112;-69
2021/12/06 09:48:31;;;;;;;67.53;53.53;;;;;;;;;;5008894;28;20030;-70
2021/12/06 09:51:00;;;;;;;66.28;55.03;;;;;;;;;;5006464;28;20034;-70
2021/12/06 09:53:28;;;;;;;74.63;58.28;;;;;;;;;;5026477;28;20034;-69
2021/12/06 09:55:56;;;;;;;71.38;56.95;;;;;;;;;;5003605;28;20026;-69
2021/12/06 09:58:23;;;;;;;68.85;59.58;;;;;;;;;;5001317;28;20045;-69
2021/12/06 10:00:51;;;;;;;67.22;57.22;;;;;;;;;;5000372;28;20038;-69
2021/12/06 10:03:23;;;;;;;66.95;60.83;;;;;;;;;;5020304;28;20037;-69
2021/12/06 10:05:49;;;;;;;;;;;;;;;;;;5012867;28;20033;-70
2021/12/06 10:08:15;;;;;;;76.00;68.50;;;;;;;;;;5005920;28;20372;-71
2021/12/06 10:10:42;;;;;;;78.72;70.72;;;;;;;;;;5016191;28;20040;-70
2021/12/06 10:13:08;;;;;;;83.53;75.25;;;;;;;;;;5010491;28;20518;-69
2021/12/06 10:15:34;;;;;;;81.35;72.80;;;;;;;;;;5011319;28;20037;-70
2021/12/06 10:18:02;;;;;;;84.30;76.68;;;;;;;;;;5007930;28;20030;-70
2021/12/06 10:20:29;;;;;;;89.10;80.50;;;;;;;;;;5008888;28;20021;-70
2021/12/06 10:22:55;;;;;;;93.65;85.28;;;;;;;;;;5006844;28;20303;-70
2021/12/06 10:25:22;;;;;;;97.60;89.00;;;;;;;;;;5009248;28;20401;-69
2021/12/06 10:27:53;;;;;;;102.75;94.20;;;;;;;;;;5006214;28;20079;-70
2021/12/06 10:30:19;;;;;;;105.38;96.65;;;;;;;;;;5010819;28;20420;-70
2021/12/06 10:32:45;;;;;;;105.07;96.47;;;;;;;;;;5009156;28;20037;-70
2021/12/06 10:35:13;;;;;;;106.10;97.35;;;;;;;;;;5011441;28;20029;-70
2021/12/06 10:37:47;;;;;;;109.70;100.65;;;;;;;;;;5004540;28;20026;-71
2021/12/06 10:40:17;;;;;;;109.88;101.30;;;;;;;;;;5000753;28;20034;-70
2021/12/06 10:42:45;;;;;;;112.18;103.00;;;;;;;;;;5002266;28;20042;-70
2021/12/06 10:45:13;;;;;;;108.13;98.72;;;;;;;;;;5007546;28;20104;-70
2021/12/06 10:47:39;;;;;;;102.78;94.45;;;;;;;;;;5007913;28;20010;-71
2021/12/06 10:50:10;;;;;;;109.32;99.40;;;;;;;;;;5004860;28;20026;-70
2021/12/06 10:52:47;;;;;;;117.13;107.43;;;;;;;;;;5017294;28;20034;-71
2021/12/06 10:55:13;;;;;;;115.90;106.18;;;;;;;;;;4999968;28;20084;-71
2021/12/06 10:57:47;;;;;;;112.55;102.45;;;;;;;;;;5005333;28;20021;-71
2021/12/06 11:00:33;;;;;;;107.53;97.53;;;;;;;;;;5008161;28;20041;-71
2021/12/06 11:03:01;;;;;;;100.28;91.22;;;;;;;;;;5022079;28;20022;-71
2021/12/06 11:05:28;;;;;;;104.38;95.15;;;;;;;;;;5005469;28;20105;-70
2021/12/06 11:08:07;;;;;;;103.78;94.63;;;;;;;;;;5003819;28;20469;-71
2021/12/06 11:10:38;;;;;;;95.90;87.93;;;;;;;;;;5002655;28;20029;-71
2021/12/06 11:13:15;;;;;;;102.47;92.32;;;;;;;;;;5001253;28;20034;-71
2021/12/06 11:15:56;;;;;;;91.85;84.65;;;;;;;;;;5018248;28;20069;-71
2021/12/06 11:18:35;;;;;;;102.32;93.00;;;;;;;;;;5002307;28;20054;-71
2021/12/06 11:21:01;;;;;;;110.47;101.28;;;;;;;;;;5010199;28;20403;-71
2021/12/06 11:23:27;;;;;;;96.03;87.72;;;;;;;;;;5008908;28;20033;-71
2021/12/06 11:26:02;;;;;;;93.60;84.35;;;;;;;;;;5004215;28;20092;-71
2021/12/06 11:28:32;;;;;;;95.57;87.07;;;;;;;;;;4993832;28;20061;-71
2021/12/06 11:31:04;;;;;;;121.82;110.20;;;;;;;;;;5014597;28;20034;-72
2021/12/06 11:33:30;;;;;;;;;;;;;;;;;;5008871;28;20037;-71
2021/12/06 11:35:56;;;;;;;177.57;159.00;;;;;;;;;;5008016;28;19956;-72
2021/12/06 11:38:22;;;;;;;87.70;80.75;;;;;;;;;;5020990;28;20026;-72
2021/12/06 11:40:49;;;;;;;82.07;75.75;;;;;;;;;;5007102;28;20026;-71
2021/12/06 11:43:17;;;;;;;85.90;78.95;;;;;;;;;;5020035;28;20120;-71
2021/12/06 11:45:55;;;;;;;92.70;84.25;;;;;;;;;;5000146;28;20025;-71
2021/12/06 11:48:22;;;;;;;94.78;86.35;;;;;;;;;;5006079;28;20079;-71
2021/12/06 11:50:54;;;;;;;94.18;87.28;;;;;;;;;;5024498;28;20308;-71
2021/12/06 11:53:22;;;;;;;97.22;89.80;;;;;;;;;;5006408;28;20436;-70
2021/12/06 11:55:51;;;;;;;101.25;93.55;;;;;;;;;;5008719;28;20026;-70
2021/12/06 11:58:28;;;;;;;103.93;95.43;;;;;;;;;;4996346;28;20034;-71
2021/12/06 12:01:10;;;;;;;103.70;96.00;;;;;;;;;;5009540;28;20033;-71
2021/12/06 12:03:36;;;;;;;102.25;94.35;;;;;;;;;;5006668;28;20037;-71
2021/12/06 12:06:02;;;;;;;89.30;82.88;;;;;;;;;;5008019;28;20045;-72
2021/12/06 12:08:33;;;;;;;97.53;90.85;;;;;;;;;;5004359;28;20030;-71
2021/12/06 12:10:59;;;;;;;93.50;85.95;;;;;;;;;;5009964;28;20030;-71
2021/12/06 12:13:27;;;;;;;99.10;91.60;;;;;;;;;;5006537;28;20034;-71
2021/12/06 12:15:54;;;;;;;94.95;88.93;;;;;;;;;;5006268;28;20030;-71
2021/12/06 12:18:21;;;;;;;89.47;82.75;;;;;;;;;;5006552;28;20036;-71
2021/12/06 12:20:47;;;;;;;97.38;89.38;;;;;;;;;;5009758;28;20059;-71
2021/12/06 12:23:14;;;;;;;90.65;83.85;;;;;;;;;;4998765;28;20049;-72
2021/12/06 12:25:51;;;;;;;95.75;88.13;;;;;;;;;;5001978;28;20018;-72
2021/12/06 12:30:44;;;;;;;98.47;90.85;;;;;;;;;;5007558;28;20030;-72
2021/12/06 12:33:11;;;;;;;95.18;88.47;;;;;;;;;;5001289;28;20026;-72
2021/12/06 12:35:40;;;;;;;97.97;90.40;;;;;;;;;;4999444;28;20030;-72
2021/12/06 12:38:06;;;;;;;92.28;85.30;;;;;;;;;;5002435;28;20021;-71
2021/12/06 12:40:43;;;;;;;85.20;78.90;;;;;;;;;;5021519;28;20041;-71
2021/12/06 12:43:18;;;;;;;88.55;82.03;;;;;;;;;;5012608;28;20044;-71
2021/12/06 12:45:49;;;;;;;88.18;81.32;;;;;;;;;;5002330;28;20026;-72
2021/12/06 12:48:17;;;;;;;;;;;;;;;;;;4998759;28;20018;-71
2021/12/06 12:51:00;;;;;;;85.88;78.95;;;;;;;;;;5005153;28;20668;-71
2021/12/06 12:53:26;;;;;;;82.10;75.68;;;;;;;;;;4999713;28;20515;-72
2021/12/06 12:55:52;;;;;;;85.32;78.38;;;;;;;;;;5022768;28;20448;-72
2021/12/06 12:58:19;;;;;;;93.85;84.63;;;;;;;;;;5004973;28;20052;-71
2021/12/06 13:00:51;;;;;;;92.18;83.70;;;;;;;;;;5009484;28;20105;-71
2021/12/06 13:03:36;;;;;;;91.63;82.47;;;;;;;;;;5007359;28;20084;-71
2021/12/06 13:06:11;;;;;;;99.40;90.07;;;;;;;;;;5012530;28;20018;-71
2021/12/06 13:08:37;;;;;;;79.95;73.78;;;;;;;;;;5008064;28;20128;-71
2021/12/06 13:11:03;;;;;;;90.20;81.57;;;;;;;;;;5004291;28;20026;-70
2021/12/06 13:13:33;;;;;;;82.15;76.20;;;;;;;;;;4994123;28;20033;-71
2021/12/06 13:16:08;;;;;;;94.00;84.47;;;;;;;;;;5011375;28;20030;-71
2021/12/06 13:18:48;;;;;;;86.50;78.38;;;;;;;;;;5004707;28;20416;-71
2021/12/06 13:21:50;;;;;;;86.00;77.35;;;;;;;;;;4993720;28;20034;-71
2021/12/06 13:24:16;;;;;;;85.43;77.63;;;;;;;;;;4989058;28;20038;-72
2021/12/06 13:26:47;;;;;;;85.65;78.30;;;;;;;;;;5004364;28;20076;-72
2021/12/06 13:29:18;;;;;;;92.78;83.93;;;;;;;;;;5024990;28;20026;-71
2021/12/06 13:31:44;;;;;;;94.72;84.85;;;;;;;;;;5012391;28;20034;-72
2021/12/06 13:34:17;;;;;;;97.35;87.05;;;;;;;;;;5005553;28;20122;-71
2021/12/06 13:36:50;;;;;;;91.15;82.07;;;;;;;;;;5009533;28;20033;-71
2021/12/06 13:39:38;;;;;;;97.43;85.80;;;;;;;;;;5006929;28;20038;-70
2021/12/06 13:42:06;;;;;;;85.95;77.70;;;;;;;;;;5011815;28;20046;-71
2021/12/06 13:44:46;;;;;;;87.40;79.38;;;;;;;;;;5026052;28;20366;-71
2021/12/06 13:47:20;;;;;;;95.75;86.30;;;;;;;;;;5011053;28;20109;-71
2021/12/06 13:49:54;;;;;;;94.70;85.05;;;;;;;;;;5013271;28;20030;-70
2021/12/06 13:52:40;;;;;;;94.22;84.22;;;;;;;;;;5008652;28;20492;-70
2021/12/06 13:55:22;;;;;;;90.75;82.30;;;;;;;;;;5010405;28;20044;-70
2021/12/06 13:57:49;;;;;;;86.22;78.68;;;;;;;;;;5007817;28;20036;-71
2021/12/06 14:00:23;;;;;;;87.95;80.80;;;;;;;;;;5009135;28;20064;-71
2021/12/06 14:02:50;;;;;;;97.30;88.10;;;;;;;;;;5005829;28;20050;-71
2021/12/06 14:05:17;;;;;;;91.70;82.97;;;;;;;;;;5004086;28;20027;-71
2021/12/06 14:07:43;;;;;;;93.50;84.82;;;;;;;;;;5001934;28;20022;-71
2021/12/06 14:10:12;;;;;;;96.50;87.22;;;;;;;;;;4999861;28;20034;-70
2021/12/06 14:12:41;;;;;;;90.65;82.15;;;;;;;;;;5007514;28;20422;-70
2021/12/06 14:15:14;;;;;;;;;;;;;;;;;;5020631;28;20485;-71
2021/12/06 14:17:40;;;;;;;100.60;91.80;;;;;;;;;;4997821;28;20390;-70
2021/12/06 14:20:07;;;;;;;96.13;87.75;;;;;;;;;;4997059;28;20038;-70
2021/12/06 14:22:34;;;;;;;111.25;100.93;;;;;;;;;;5002565;28;20034;-70
2021/12/06 14:25:01;;;;;;;;;;;;;;;;;;5005808;28;20022;-73
2021/12/06 14:27:27;;;;;;;;;;;;;;;;;;5005923;28;20011;-72
2021/12/06 14:29:53;;;;;;;;;;;;;;;;;;5009902;28;20000;-73
2021/12/06 14:32:19;;;;;;;;;;;;;;;;;;5007877;28;19909;-73
2021/12/06 14:34:45;;;;;;;;;;;;;;;;;;5004696;28;20291;-73
2021/12/06 14:37:11;;;;;;;;;;;;;;;;;;5023341;28;19956;-73
2021/12/06 14:39:37;;;;;;;;;;;;;;;;;;5008550;28;19944;-72
2021/12/06 14:42:03;;;;;;;;;;;;;;;;;;5007224;28;20392;-73
2021/12/06 14:44:29;;;;;;;;;;;;;;;;;;5009162;28;19941;-74
2021/12/06 14:46:55;;;;;;;78.70;72.80;;;;;;;;;;5001208;28;19940;-71
2021/12/06 14:49:22;;;;;;;217.73;196.90;;;;;;;;;;4996748;28;20400;-71
2021/12/06 14:51:48;;;;;;;81.47;74.97;;;;;;;;;;5003680;28;20053;-72
2021/12/06 14:54:22;;;;;;;91.15;82.28;;;;;;;;;;5010229;28;20021;-71
2021/12/06 14:57:01;;;;;;;82.88;75.72;;;;;;;;;;5000720;28;20040;-70
2021/12/06 14:59:32;;;;;;;83.78;76.85;;;;;;;;;;5022507;28;20034;-71
2021/12/06 15:01:59;;;;;;;95.47;86.65;;;;;;;;;;5010097;28;20163;-70
2021/12/06 15:04:51;;;;;;;90.82;82.60;;;;;;;;;;5009955;28;20087;-70
2021/12/06 15:07:16;;;;;;;89.15;81.63;;;;;;;;;;5009819;28;20033;-71
2021/12/06 15:09:42;;;;;;;80.05;74.13;;;;;;;;;;5003016;28;20026;-71
2021/12/06 15:12:09;;;;;;;86.28;78.90;;;;;;;;;;5018652;28;20095;-71
2021/12/06 15:14:36;;;;;;;88.28;80.47;;;;;;;;;;5008959;28;20331;-71
2021/12/06 15:17:03;;;;;;;91.10;83.32;;;;;;;;;;5005456;28;20076;-70
2021/12/06 15:19:30;;;;;;;72.72;68.05;;;;;;;;;;5004021;28;20373;-70
2021/12/06 15:21:57;;;;;;;88.90;81.03;;;;;;;;;;5007757;28;20026;-70
2021/12/06 15:24:24;;;;;;;89.00;81.78;;;;;;;;;;5010668;28;20022;-70
2021/12/06 15:26:55;;;;;;;86.70;79.75;;;;;;;;;;5005513;28;20363;-71